createdAt,value
2019-01-10T00:00:02.985Z,8.55
2019-01-10T00:01:03.061Z,8.44
2019-01-10T00:02:02.687Z,8.44
2019-01-10T00:03:03.541Z,7.79
2019-01-10T00:04:02.350Z,7.79
2019-01-10T00:05:01.724Z,7.39
2019-01-10T00:06:02.883Z,8.81
2019-01-10T00:07:03.022Z,9.56
2019-01-10T00:08:02.580Z,10.09
2019-01-10T00:09:03.077Z,7.5
2019-01-10T00:10:03.193Z,7.42
2019-01-10T00:11:02.940Z,6.36
2019-01-10T00:12:03.103Z,7.29
2019-01-10T00:13:02.678Z,9.75
2019-01-10T00:14:03.094Z,8.63
2019-01-10T00:15:02.777Z,7.37
2019-01-10T00:16:02.693Z,10.56
2019-01-10T00:17:03.268Z,8.26
2019-01-10T00:18:03.265Z,8.26
2019-01-10T00:19:02.628Z,7.86
2019-01-10T00:20:03.270Z,7.98
2019-01-10T00:21:03.175Z,6.61
2019-01-10T00:22:02.854Z,6.61
2019-01-10T00:23:03.424Z,8.32
2019-01-10T00:24:03.462Z,8.32
2019-01-10T00:25:03.040Z,7.04
2019-01-10T00:26:03.049Z,8.29
2019-01-10T00:27:03.296Z,9.93
2019-01-10T00:28:02.625Z,10.07
2019-01-10T00:29:03.075Z,7.17
2019-01-10T00:30:03.111Z,8.67
2019-01-10T00:31:02.408Z,9.85
2019-01-10T00:32:03.305Z,9.14
2019-01-10T00:33:02.714Z,6.59
2019-01-10T00:34:02.768Z,11.96
2019-01-10T00:35:02.692Z,8.76
2019-01-10T00:36:03.071Z,7.72
2019-01-10T00:37:02.671Z,7.97
2019-01-10T00:38:03.338Z,7.97
2019-01-10T00:39:02.735Z,7.77
2019-01-10T00:40:03.202Z,7.77
2019-01-10T00:41:02.589Z,7.89
2019-01-10T00:42:03.025Z,7.89
2019-01-10T00:43:02.716Z,6.82
2019-01-10T00:44:02.884Z,7.24
2019-01-10T00:45:02.920Z,9.68
2019-01-10T00:46:03.247Z,9.68
2019-01-10T00:47:03.133Z,10.37
2019-01-10T00:48:02.975Z,10.37
2019-01-10T00:49:03.382Z,8.86
2019-01-10T00:50:03.260Z,12.89
2019-01-10T00:51:03.384Z,20.08
2019-01-10T00:52:02.386Z,10.38
2019-01-10T00:53:01.649Z,9.56
2019-01-10T00:54:02.230Z,7.98
2019-01-10T00:55:02.980Z,8.43
2019-01-10T00:56:03.284Z,8.43
2019-01-10T00:57:03.128Z,10.61
2019-01-10T00:58:01.560Z,9.32
2019-01-10T00:59:03.418Z,13.41
2019-01-10T01:00:03.416Z,13.41
2019-01-10T01:01:02.946Z,7.28
2019-01-10T01:02:03.192Z,9.87
2019-01-10T01:03:02.780Z,12.95
2019-01-10T01:04:03.416Z,12.95
2019-01-10T01:05:03.605Z,9.14
2019-01-10T01:06:03.067Z,9.14
2019-01-10T01:07:02.945Z,9.82
2019-01-10T01:08:02.625Z,9.82
2019-01-10T01:09:02.850Z,9.23
2019-01-10T01:10:03.246Z,9.23
2019-01-10T01:11:03.504Z,7.45
2019-01-10T01:12:03.021Z,7.45
2019-01-10T01:13:03.420Z,7.57
2019-01-10T01:14:03.291Z,7.78
2019-01-10T01:15:03.202Z,8.34
2019-01-10T01:16:02.836Z,7.7
2019-01-10T01:17:01.722Z,6.37
2019-01-10T01:18:01.763Z,7.66
2019-01-10T01:19:03.181Z,6.63
2019-01-10T01:20:02.576Z,5.29
2019-01-10T01:21:02.550Z,5.92
2019-01-10T01:22:03.094Z,7.61
2019-01-10T01:23:02.965Z,6.32
2019-01-10T01:24:02.553Z,6.32
2019-01-10T01:25:03.309Z,7.61
2019-01-10T01:26:02.945Z,8.29
2019-01-10T01:27:02.849Z,8.29
2019-01-10T01:28:03.264Z,7.76
2019-01-10T01:29:02.594Z,7.76
2019-01-10T01:30:03.537Z,7.16
2019-01-10T01:31:03.457Z,7.16
2019-01-10T01:32:02.651Z,9.47
2019-01-10T01:33:02.982Z,6.62
2019-01-10T01:34:03.405Z,10.36
2019-01-10T01:35:03.201Z,8.72
2019-01-10T01:36:03.060Z,8.72
2019-01-10T01:37:02.565Z,8.86
2019-01-10T01:38:03.402Z,8.46
2019-01-10T01:39:03.080Z,10.06
2019-01-10T01:40:03.505Z,7.72
2019-01-10T01:41:02.219Z,6.98
2019-01-10T01:42:03.252Z,8.35
2019-01-10T01:43:07.235Z,8.35
2019-01-10T01:44:03.411Z,6.9
2019-01-10T01:45:02.878Z,7.74
2019-01-10T01:46:03.041Z,8.02
2019-01-10T01:47:02.805Z,7
2019-01-10T01:48:03.425Z,10.32
2019-01-10T01:49:02.628Z,7.28
2019-01-10T01:50:02.842Z,7.46
2019-01-10T01:51:02.769Z,11.75
2019-01-10T01:52:03.065Z,23.71
2019-01-10T01:53:03.518Z,16.31
2019-01-10T01:54:02.682Z,10.49
2019-01-10T01:55:03.128Z,10.49
2019-01-10T01:56:03.261Z,13.96
2019-01-10T01:57:03.744Z,10.27
2019-01-10T01:58:03.027Z,9.64
2019-01-10T01:59:02.927Z,9.64
2019-01-10T02:00:02.941Z,10.86
2019-01-10T02:01:03.117Z,6.72
2019-01-10T02:02:03.133Z,7.08
2019-01-10T02:03:02.831Z,7.56
2019-01-10T02:04:02.601Z,5.95
2019-01-10T02:05:03.586Z,8.86
2019-01-10T02:06:02.942Z,8.12
2019-01-10T02:07:03.486Z,8.83
2019-01-10T02:08:02.902Z,8.58
2019-01-10T02:09:01.982Z,7.85
2019-01-10T02:10:03.181Z,7.29
2019-01-10T02:11:02.588Z,7.87
2019-01-10T02:12:03.319Z,6.15
2019-01-10T02:13:02.499Z,7.48
2019-01-10T02:14:03.292Z,8.22
2019-01-10T02:15:03.405Z,8.22
2019-01-10T02:16:03.299Z,6
2019-01-10T02:17:03.401Z,6
2019-01-10T02:18:02.837Z,6.58
2019-01-10T02:19:02.954Z,6.58
2019-01-10T02:20:03.171Z,7.14
2019-01-10T02:21:02.613Z,7.14
2019-01-10T02:22:03.290Z,8.19
2019-01-10T02:23:03.235Z,8.19
2019-01-10T02:24:02.792Z,12.61
2019-01-10T02:25:02.824Z,12.61
2019-01-10T02:26:02.133Z,11.99
2019-01-10T02:27:03.293Z,8.63
2019-01-10T02:28:02.723Z,12.69
2019-01-10T02:29:02.593Z,12.69
2019-01-10T02:30:03.337Z,10.18
2019-01-10T02:31:02.655Z,11.21
2019-01-10T02:32:03.517Z,12.77
2019-01-10T02:33:02.551Z,12.77
2019-01-10T02:34:02.937Z,8.28
2019-01-10T02:35:02.903Z,7.17
2019-01-10T02:36:02.808Z,16.51
2019-01-10T02:37:03.279Z,16.51
2019-01-10T02:38:02.850Z,8.23
2019-01-10T02:39:03.597Z,9.65
2019-01-10T02:40:02.699Z,6.81
2019-01-10T02:41:02.879Z,9.62
2019-01-10T02:42:02.727Z,6.54
2019-01-10T02:43:04.520Z,6.54
2019-01-10T02:44:03.183Z,9.52
2019-01-10T02:45:03.115Z,9.52
2019-01-10T02:46:02.608Z,11.34
2019-01-10T02:47:02.640Z,8.13
2019-01-10T02:48:02.426Z,8.58
2019-01-10T02:49:02.504Z,8.84
2019-01-10T02:50:02.547Z,8.52
2019-01-10T02:51:02.318Z,9.73
2019-01-10T02:52:03.106Z,7.95
2019-01-10T02:53:02.830Z,7.93
2019-01-10T02:54:02.809Z,6.56
2019-01-10T02:55:03.521Z,7.24
2019-01-10T02:56:03.705Z,8.4
2019-01-10T02:57:03.517Z,6.28
2019-01-10T02:58:03.123Z,6.28
2019-01-10T02:59:02.996Z,5.29
2019-01-10T03:00:03.081Z,7.78
2019-01-10T03:01:02.601Z,10.65
2019-01-10T03:02:03.402Z,6.56
2019-01-10T03:03:03.563Z,6.56
2019-01-10T03:04:03.264Z,5.45
2019-01-10T03:05:02.526Z,6.23
2019-01-10T03:06:02.643Z,6.01
2019-01-10T03:07:03.319Z,6.01
2019-01-10T03:08:03.458Z,8.46
2019-01-10T03:09:03.091Z,8.14
2019-01-10T03:10:02.613Z,8.14
2019-01-10T03:11:02.950Z,12.25
2019-01-10T03:12:02.086Z,6.48
2019-01-10T03:13:02.269Z,7.28
2019-01-10T03:14:03.437Z,5.9
2019-01-10T03:15:01.908Z,7.85
2019-01-10T03:16:02.588Z,6.48
2019-01-10T03:17:03.623Z,15.97
2019-01-10T03:18:02.921Z,6.38
2019-01-10T03:19:02.907Z,9.22
2019-01-10T03:20:02.544Z,8.03
2019-01-10T03:21:03.682Z,7.62
2019-01-10T03:22:02.892Z,7.23
2019-01-10T03:23:03.378Z,5.04
2019-01-10T03:24:03.430Z,6.94
2019-01-10T03:25:02.862Z,8.07
2019-01-10T03:26:03.068Z,5.09
2019-01-10T03:27:02.959Z,7.99
2019-01-10T03:28:02.375Z,7.99
2019-01-10T03:29:03.239Z,7.72
2019-01-10T03:30:03.533Z,7.72
2019-01-10T03:31:03.166Z,6.75
2019-01-10T03:32:03.433Z,6.75
2019-01-10T03:33:02.717Z,7.68
2019-01-10T03:34:02.866Z,7.68
2019-01-10T03:35:03.413Z,6.34
2019-01-10T03:36:03.645Z,8.05
2019-01-10T03:37:02.987Z,6.68
2019-01-10T03:38:01.549Z,7.46
2019-01-10T03:39:02.872Z,9.44
2019-01-10T03:40:02.830Z,7.42
2019-01-10T03:41:03.522Z,6.86
2019-01-10T03:42:03.362Z,6.86
2019-01-10T03:43:02.840Z,8.14
2019-01-10T03:44:03.322Z,7.52
2019-01-10T03:45:02.668Z,13.32
2019-01-10T03:46:03.381Z,6.69
2019-01-10T03:47:03.288Z,5.55
2019-01-10T03:48:02.973Z,5.55
2019-01-10T03:49:02.700Z,4.72
2019-01-10T03:50:03.147Z,5.56
2019-01-10T03:51:02.682Z,6.04
2019-01-10T03:52:02.641Z,6.04
2019-01-10T03:53:03.499Z,6.71
2019-01-10T03:54:03.458Z,6.71
2019-01-10T03:55:02.888Z,6.58
2019-01-10T03:56:02.925Z,5.65
2019-01-10T03:57:02.746Z,5.65
2019-01-10T03:58:02.629Z,5.51
2019-01-10T03:59:02.883Z,4.91
2019-01-10T04:00:01.735Z,5.99
2019-01-10T04:01:02.726Z,8.44
2019-01-10T04:02:03.166Z,5.34
2019-01-10T04:03:03.592Z,7.26
2019-01-10T04:04:03.428Z,5.61
2019-01-10T04:05:03.220Z,5.21
2019-01-10T04:06:03.211Z,5.21
2019-01-10T04:07:03.433Z,6.86
2019-01-10T04:08:03.079Z,7.5
2019-01-10T04:09:03.088Z,6.15
2019-01-10T04:10:02.599Z,6.15
2019-01-10T04:11:03.373Z,6.17
2019-01-10T04:12:03.386Z,6.17
2019-01-10T04:13:02.565Z,5.46
2019-01-10T04:14:02.728Z,6.42
2019-01-10T04:15:03.556Z,6.54
2019-01-10T04:16:03.326Z,6.54
2019-01-10T04:17:03.031Z,5.57
2019-01-10T04:18:03.247Z,4.71
2019-01-10T04:19:02.991Z,5.41
2019-01-10T04:20:02.660Z,4.72
2019-01-10T04:21:02.511Z,5.35
2019-01-10T04:22:01.863Z,6.56
2019-01-10T04:23:02.510Z,6.04
2019-01-10T04:24:02.032Z,7.88
2019-01-10T04:25:03.504Z,6.54
2019-01-10T04:26:02.610Z,5.72
2019-01-10T04:27:02.738Z,4.81
2019-01-10T04:28:03.150Z,4.81
2019-01-10T04:29:02.872Z,5.51
2019-01-10T04:30:03.358Z,9.97
2019-01-10T04:31:03.073Z,3.77
2019-01-10T04:32:03.084Z,3.77
2019-01-10T04:33:03.232Z,4.89
2019-01-10T04:34:02.729Z,4.89
2019-01-10T04:35:03.490Z,4.37
2019-01-10T04:36:03.227Z,4.37
2019-01-10T04:37:03.229Z,5.2
2019-01-10T04:38:03.107Z,5.92
2019-01-10T04:39:03.430Z,4.99
2019-01-10T04:40:02.839Z,4.99
2019-01-10T04:41:03.161Z,5.38
2019-01-10T04:42:03.322Z,4.8
2019-01-10T04:43:03.220Z,4.51
2019-01-10T04:44:07.100Z,5.12
2019-01-10T04:45:01.941Z,5.05
2019-01-10T04:46:02.765Z,5.05
2019-01-10T04:47:03.067Z,4.24
2019-01-10T04:48:02.847Z,6.49
2019-01-10T04:49:02.916Z,6.49
2019-01-10T04:50:03.022Z,5.42
2019-01-10T04:51:02.995Z,4.42
2019-01-10T04:52:02.885Z,4.33
2019-01-10T04:53:02.572Z,6.66
2019-01-10T04:54:03.437Z,5.22
2019-01-10T04:55:02.835Z,3.99
2019-01-10T04:56:02.906Z,3.99
2019-01-10T04:57:02.806Z,4.76
2019-01-10T04:58:02.909Z,3.54
2019-01-10T04:59:02.944Z,4.25
2019-01-10T05:00:03.281Z,4.75
2019-01-10T05:01:02.990Z,4.31
2019-01-10T05:02:02.807Z,3.38
2019-01-10T05:03:02.578Z,3.38
2019-01-10T05:04:02.742Z,3.77
2019-01-10T05:05:02.823Z,4.3
2019-01-10T05:06:03.625Z,4.17
2019-01-10T05:07:01.402Z,5.24
2019-01-10T05:08:03.505Z,4.94
2019-01-10T05:09:01.640Z,4.12
2019-01-10T05:10:03.353Z,4.39
2019-01-10T05:11:02.858Z,3.74
2019-01-10T05:12:02.898Z,3.82
2019-01-10T05:13:03.277Z,3.84
2019-01-10T05:14:02.415Z,6.06
2019-01-10T05:15:03.432Z,4.24
2019-01-10T05:16:02.937Z,5.78
2019-01-10T05:17:03.394Z,4.4
2019-01-10T05:18:03.380Z,3.91
2019-01-10T05:19:02.942Z,3.91
2019-01-10T05:20:03.160Z,3.73
2019-01-10T05:21:02.898Z,6.22
2019-01-10T05:22:03.115Z,3.9
2019-01-10T05:23:02.573Z,5.25
2019-01-10T05:24:03.300Z,5.85
2019-01-10T05:25:02.954Z,5.85
2019-01-10T05:26:03.327Z,4.65
2019-01-10T05:27:02.198Z,5.46
2019-01-10T05:28:03.378Z,5.32
2019-01-10T05:29:03.365Z,4.61
2019-01-10T05:30:03.001Z,8.21
2019-01-10T05:31:03.085Z,6.14
2019-01-10T05:32:03.560Z,3.72
2019-01-10T05:33:02.991Z,4.75
2019-01-10T05:34:03.064Z,4.75
2019-01-10T05:35:03.080Z,3.3
2019-01-10T05:36:02.844Z,4.09
2019-01-10T05:37:03.267Z,4.09
2019-01-10T05:38:02.497Z,4.09
2019-01-10T05:39:03.554Z,4.61
2019-01-10T05:40:03.598Z,3.68
2019-01-10T05:41:03.309Z,4.62
2019-01-10T05:42:03.313Z,2.59
2019-01-10T05:43:02.719Z,2.59
2019-01-10T05:44:02.575Z,4.51
2019-01-10T05:45:03.422Z,4.51
2019-01-10T05:46:03.324Z,4.34
2019-01-10T05:47:02.942Z,4.34
2019-01-10T05:48:02.851Z,3.65
2019-01-10T05:49:02.251Z,3.23
2019-01-10T05:50:03.356Z,3.2
2019-01-10T05:51:02.216Z,7.39
2019-01-10T05:52:02.906Z,4.68
2019-01-10T05:53:02.795Z,6.51
2019-01-10T05:54:02.014Z,7.65
2019-01-10T05:55:03.434Z,2.9
2019-01-10T05:56:03.224Z,4.95
2019-01-10T05:57:03.166Z,4.95
2019-01-10T05:58:03.217Z,3.32
2019-01-10T05:59:03.442Z,5.52
2019-01-10T06:00:02.790Z,4.07
2019-01-10T06:01:02.904Z,3.49
2019-01-10T06:02:03.482Z,3.49
2019-01-10T06:03:02.684Z,2.83
2019-01-10T06:04:02.888Z,5.92
2019-01-10T06:05:03.042Z,4.56
2019-01-10T06:06:02.366Z,7.79
2019-01-10T06:07:02.635Z,7.79
2019-01-10T06:08:03.353Z,2.67
2019-01-10T06:09:02.592Z,2.67
2019-01-10T06:10:03.449Z,3.12
2019-01-10T06:11:02.985Z,5.39
2019-01-10T06:12:03.025Z,9.06
2019-01-10T06:13:03.278Z,4.65
2019-01-10T06:14:03.336Z,3.81
2019-01-10T06:15:03.176Z,3.12
2019-01-10T06:16:03.119Z,3.76
2019-01-10T06:17:03.171Z,5.36
2019-01-10T06:18:03.277Z,6.49
2019-01-10T06:19:02.751Z,3.99
2019-01-10T06:20:03.544Z,3.58
2019-01-10T06:21:03.399Z,3.58
2019-01-10T06:22:03.223Z,4.01
2019-01-10T06:23:03.406Z,4.01
2019-01-10T06:24:03.454Z,4.02
2019-01-10T06:25:02.851Z,4.02
2019-01-10T06:26:02.925Z,3.95
2019-01-10T06:27:02.562Z,3.95
2019-01-10T06:28:02.715Z,2.95
2019-01-10T06:29:03.132Z,3.27
2019-01-10T06:30:02.920Z,4.02
2019-01-10T06:31:02.761Z,3.51
2019-01-10T06:32:02.715Z,2.85
2019-01-10T06:33:01.698Z,3.16
2019-01-10T06:34:03.299Z,4.01
2019-01-10T06:35:03.014Z,2.74
2019-01-10T06:36:02.584Z,5.68
2019-01-10T06:37:02.977Z,5.74
2019-01-10T06:38:03.276Z,3.16
2019-01-10T06:39:03.230Z,5.15
2019-01-10T06:40:03.410Z,3.56
2019-01-10T06:41:02.685Z,3.39
2019-01-10T06:42:02.671Z,3.98
2019-01-10T06:43:03.190Z,4.58
2019-01-10T06:44:03.267Z,4.35
2019-01-10T06:45:03.371Z,4.35
2019-01-10T06:46:02.921Z,3.96
2019-01-10T06:47:03.141Z,8.45
2019-01-10T06:48:03.344Z,4.58
2019-01-10T06:49:02.855Z,4.58
2019-01-10T06:50:02.450Z,4.94
2019-01-10T06:51:02.415Z,4.94
2019-01-10T06:52:03.137Z,3.55
2019-01-10T06:53:03.253Z,4.22
2019-01-10T06:54:03.427Z,2.94
2019-01-10T06:55:02.090Z,3.71
2019-01-10T06:56:01.952Z,2.97
2019-01-10T06:57:03.277Z,7.08
2019-01-10T06:58:03.406Z,9.4
2019-01-10T06:59:02.953Z,9.4
2019-01-10T07:00:03.116Z,2.72
2019-01-10T07:01:03.462Z,4.08
2019-01-10T07:02:03.304Z,7.56
2019-01-10T07:03:02.940Z,4.38
2019-01-10T07:04:03.199Z,8.01
2019-01-10T07:05:03.142Z,2.92
2019-01-10T07:06:03.309Z,6
2019-01-10T07:07:02.987Z,5.97
2019-01-10T07:08:03.470Z,3.77
2019-01-10T07:09:03.333Z,3.77
2019-01-10T07:10:03.194Z,6.96
2019-01-10T07:11:02.896Z,6.96
2019-01-10T07:12:03.183Z,4.27
2019-01-10T07:13:03.621Z,4.27
2019-01-10T07:14:03.111Z,3.7
2019-01-10T07:15:03.125Z,3.99
2019-01-10T07:16:02.542Z,6.08
2019-01-10T07:17:02.350Z,3.71
2019-01-10T07:18:03.348Z,4.22
2019-01-10T07:19:01.750Z,4.2
2019-01-10T07:20:03.065Z,3.58
2019-01-10T07:21:03.135Z,3.68
2019-01-10T07:22:02.999Z,3.81
2019-01-10T07:23:02.912Z,3.26
2019-01-10T07:24:03.047Z,4.98
2019-01-10T07:25:02.675Z,4.11
2019-01-10T07:26:02.739Z,7.59
2019-01-10T07:27:03.184Z,7.59
2019-01-10T07:28:03.326Z,4.71
2019-01-10T07:29:03.046Z,3.92
2019-01-10T07:30:03.540Z,3.04
2019-01-10T07:31:03.293Z,3.04
2019-01-10T07:32:02.599Z,4.32
2019-01-10T07:33:02.884Z,4.32
2019-01-10T07:34:03.527Z,6.78
2019-01-10T07:35:03.523Z,6.78
2019-01-10T07:36:03.346Z,5.05
2019-01-10T07:37:12.377Z,5.05
2019-01-10T07:38:03.169Z,3.21
2019-01-10T07:39:02.800Z,3.21
2019-01-10T07:40:03.345Z,3.68
2019-01-10T07:41:02.434Z,4.21
2019-01-10T07:42:03.064Z,3.22
2019-01-10T07:43:02.664Z,3.54
2019-01-10T07:44:03.386Z,4.08
2019-01-10T07:45:03.401Z,3.61
2019-01-10T07:46:02.655Z,3.28
2019-01-10T07:47:02.803Z,7.26
2019-01-10T07:48:02.706Z,3.11
2019-01-10T07:49:03.085Z,2.97
2019-01-10T07:50:03.337Z,3.62
2019-01-10T07:51:02.646Z,3.62
2019-01-10T07:52:02.846Z,2.59
2019-01-10T07:53:03.414Z,7.48
2019-01-10T07:54:03.054Z,3.21
2019-01-10T07:55:03.275Z,3.21
2019-01-10T07:56:03.200Z,3.05
2019-01-10T07:57:02.541Z,3.05
2019-01-10T07:58:03.049Z,3.71
2019-01-10T07:59:02.983Z,3.34
2019-01-10T08:00:03.539Z,3.99
2019-01-10T08:01:02.490Z,3.99
2019-01-10T08:02:03.234Z,2.91
2019-01-10T08:03:03.387Z,2.91
2019-01-10T08:04:02.272Z,4.56
2019-01-10T08:05:01.777Z,4.56
2019-01-10T08:06:04.588Z,3.05
2019-01-10T08:07:03.129Z,6.99
2019-01-10T08:08:03.224Z,2.72
2019-01-10T08:09:03.347Z,2.44
2019-01-10T08:10:03.002Z,3.09
2019-01-10T08:11:03.325Z,2.08
2019-01-10T08:12:03.418Z,3.11
2019-01-10T08:13:02.900Z,3.11
2019-01-10T08:14:03.538Z,2.95
2019-01-10T08:15:11.545Z,2.95
2019-01-10T08:16:03.146Z,2.71
2019-01-10T08:17:02.454Z,3.08
2019-01-10T08:18:03.431Z,7.88
2019-01-10T08:19:02.689Z,7.88
2019-01-10T08:20:02.729Z,3.29
2019-01-10T08:21:02.801Z,3.09
2019-01-10T08:22:03.224Z,2.29
2019-01-10T08:23:03.194Z,3.46
2019-01-10T08:24:02.997Z,3.46
2019-01-10T08:25:03.501Z,2.36
2019-01-10T08:26:02.505Z,3.43
2019-01-10T08:27:02.776Z,3.19
2019-01-10T08:28:03.037Z,2.26
2019-01-10T08:29:02.713Z,2.85
2019-01-10T08:30:03.405Z,3.19
2019-01-10T08:31:03.133Z,2.54
2019-01-10T08:32:04.142Z,2.48
2019-01-10T08:33:02.960Z,2.22
2019-01-10T08:34:02.597Z,2.96
2019-01-10T08:35:03.424Z,2.68
2019-01-10T08:36:02.780Z,2.68
2019-01-10T08:37:02.875Z,3.5
2019-01-10T08:38:03.481Z,2.62
2019-01-10T08:39:03.018Z,2.31
2019-01-10T08:40:02.850Z,2.31
2019-01-10T08:41:03.394Z,2.64
2019-01-10T08:42:02.867Z,3.11
2019-01-10T08:43:03.170Z,3.11
2019-01-10T08:44:02.497Z,3.3
2019-01-10T08:45:02.986Z,4.19
2019-01-10T08:46:02.716Z,3.33
2019-01-10T08:47:03.042Z,4.03
2019-01-10T08:48:02.090Z,3.65
2019-01-10T08:49:03.409Z,3.65
2019-01-10T08:50:03.264Z,3.65
2019-01-10T08:51:03.402Z,3.38
2019-01-10T08:52:03.493Z,3.38
2019-01-10T08:53:02.476Z,2.6
2019-01-10T08:54:03.359Z,3.48
2019-01-10T08:55:03.467Z,3
2019-01-10T08:56:02.747Z,3.95
2019-01-10T08:57:03.164Z,3.22
2019-01-10T08:58:02.860Z,3.28
2019-01-10T08:59:02.794Z,5.2
2019-01-10T09:00:03.424Z,4.09
2019-01-10T09:01:03.011Z,2.99
2019-01-10T09:02:02.742Z,2.34
2019-01-10T09:03:03.202Z,2.72
2019-01-10T09:04:03.204Z,2.72
2019-01-10T09:05:02.828Z,3.06
2019-01-10T09:06:07.985Z,3.06
2019-01-10T09:07:03.372Z,3.02
2019-01-10T09:08:02.844Z,2.93
2019-01-10T09:09:03.386Z,3.44
2019-01-10T09:10:03.119Z,7.26
2019-01-10T09:11:02.695Z,3.04
2019-01-10T09:12:02.136Z,4.02
2019-01-10T09:13:03.367Z,3.15
2019-01-10T09:14:04.693Z,3.15
2019-01-10T09:15:02.841Z,4.3
2019-01-10T09:16:02.959Z,3.45
2019-01-10T09:17:02.783Z,7
2019-01-10T09:18:02.528Z,7
2019-01-10T09:19:03.019Z,5.56
2019-01-10T09:20:02.741Z,3.52
2019-01-10T09:21:04.321Z,2.44
2019-01-10T09:22:03.566Z,3.1
2019-01-10T09:23:03.361Z,2.71
2019-01-10T09:24:02.869Z,2.4
2019-01-10T09:25:02.913Z,3.15
2019-01-10T09:26:03.681Z,3.15
2019-01-10T09:27:02.766Z,6.54
2019-01-10T09:28:03.440Z,6.54
2019-01-10T09:29:02.695Z,3.46
2019-01-10T09:30:03.342Z,3.46
2019-01-10T09:31:02.974Z,2.48
2019-01-10T09:32:02.982Z,2.48
2019-01-10T09:33:03.202Z,2.67
2019-01-10T09:34:02.865Z,4.66
2019-01-10T09:35:02.692Z,4.66
2019-01-10T09:36:02.441Z,4.02
2019-01-10T09:37:03.862Z,3.02
2019-01-10T09:38:03.104Z,3.02
2019-01-10T09:39:03.013Z,3.64
2019-01-10T09:40:02.608Z,3.66
2019-01-10T09:41:02.864Z,2.82
2019-01-10T09:42:03.319Z,3.3
2019-01-10T09:43:03.623Z,4.9
2019-01-10T09:44:02.658Z,3.54
2019-01-10T09:45:03.539Z,3.22
2019-01-10T09:46:02.505Z,2.51
2019-01-10T09:47:02.610Z,3.24
2019-01-10T09:48:03.140Z,4.4
2019-01-10T09:49:02.697Z,4.4
2019-01-10T09:50:02.532Z,3.23
2019-01-10T09:51:02.738Z,3.38
2019-01-10T09:52:03.306Z,8.24
2019-01-10T09:53:02.998Z,3.25
2019-01-10T09:54:03.094Z,5.36
2019-01-10T09:55:02.568Z,5.36
2019-01-10T09:56:02.977Z,9.26
2019-01-10T09:57:03.428Z,8.91
2019-01-10T09:58:02.733Z,2.22
2019-01-10T09:59:03.264Z,2.22
2019-01-10T10:00:03.267Z,3.46
2019-01-10T10:01:02.874Z,3.11
2019-01-10T10:02:02.556Z,3.12
2019-01-10T10:03:02.906Z,3.12
2019-01-10T10:04:01.873Z,3.12
2019-01-10T10:05:03.119Z,3.62
2019-01-10T10:06:07.699Z,3.37
2019-01-10T10:07:02.864Z,4.14
2019-01-10T10:08:02.871Z,4.34
2019-01-10T10:09:03.301Z,5.83
2019-01-10T10:10:02.908Z,5.83
2019-01-10T10:11:03.323Z,2.85
2019-01-10T10:12:03.127Z,3.09
2019-01-10T10:13:02.622Z,3.09
2019-01-10T10:14:02.724Z,4.11
2019-01-10T10:15:02.790Z,4.11
2019-01-10T10:16:03.044Z,4.18
2019-01-10T10:17:03.518Z,4.18
2019-01-10T10:18:02.711Z,3.44
2019-01-10T10:19:03.136Z,4.03
2019-01-10T10:20:02.542Z,2.77
2019-01-10T10:21:02.871Z,3.09
2019-01-10T10:22:02.568Z,4.13
2019-01-10T10:23:02.984Z,3.84
2019-01-10T10:24:03.020Z,5.24
2019-01-10T10:25:02.814Z,5.24
2019-01-10T10:26:03.050Z,4.29
2019-01-10T10:27:02.851Z,4.29
2019-01-10T10:28:02.881Z,4.02
2019-01-10T10:29:02.820Z,4.24
2019-01-10T10:30:02.830Z,4.24
2019-01-10T10:31:02.655Z,3.24
2019-01-10T10:32:02.868Z,3.78
2019-01-10T10:33:02.860Z,3.12
2019-01-10T10:34:03.519Z,3.12
2019-01-10T10:35:02.760Z,3.25
2019-01-10T10:36:03.110Z,5.98
2019-01-10T10:37:02.592Z,3.56
2019-01-10T10:38:02.734Z,3.56
2019-01-10T10:39:03.364Z,4.47
2019-01-10T10:40:03.269Z,3.55
2019-01-10T10:41:03.430Z,4.18
2019-01-10T10:42:02.705Z,4.31
2019-01-10T10:43:03.332Z,3.46
2019-01-10T10:44:03.204Z,4.75
2019-01-10T10:45:02.827Z,4.59
2019-01-10T10:46:02.155Z,2.91
2019-01-10T10:47:02.449Z,3.56
2019-01-10T10:48:01.818Z,3.35
2019-01-10T10:49:03.250Z,4.17
2019-01-10T10:50:02.852Z,4.4
2019-01-10T10:51:03.449Z,4.4
2019-01-10T10:52:03.402Z,3.22
2019-01-10T10:53:02.821Z,3.48
2019-01-10T10:54:03.432Z,3.79
2019-01-10T10:55:02.627Z,3.19
2019-01-10T10:56:03.338Z,3.68
2019-01-10T10:57:02.612Z,3.36
2019-01-10T10:58:03.169Z,3.36
2019-01-10T10:59:02.907Z,6.62
2019-01-10T11:00:03.292Z,7.36
2019-01-10T11:01:02.500Z,4.53
2019-01-10T11:02:03.807Z,4.53
2019-01-10T11:03:02.647Z,3.75
2019-01-10T11:04:03.426Z,3.75
2019-01-10T11:05:03.179Z,5.06
2019-01-10T11:06:02.743Z,3.72
2019-01-10T11:07:03.438Z,3.97
2019-01-10T11:08:02.617Z,3.62
2019-01-10T11:09:08.981Z,3.62
2019-01-10T11:10:03.285Z,3.7
2019-01-10T11:11:02.806Z,3.61
2019-01-10T11:12:02.585Z,3.61
2019-01-10T11:13:02.719Z,3.68
2019-01-10T11:14:03.094Z,3.68
2019-01-10T11:15:02.755Z,3.82
2019-01-10T11:16:10.337Z,3.82
2019-01-10T11:17:03.337Z,2.97
2019-01-10T11:18:02.845Z,2.97
2019-01-10T11:19:03.415Z,3.96
2019-01-10T11:20:03.046Z,3.07
2019-01-10T11:21:02.929Z,3.07
2019-01-10T11:22:03.326Z,3.07
2019-01-10T11:23:10.364Z,3.31
2019-01-10T11:24:03.527Z,4.18
2019-01-10T11:25:03.445Z,5.16
2019-01-10T11:26:02.995Z,5.16
2019-01-10T11:27:02.699Z,3.52
2019-01-10T11:28:03.344Z,5.38
2019-01-10T11:29:02.898Z,5.79
2019-01-10T11:30:03.535Z,3.41
2019-01-10T11:31:02.290Z,3.93
2019-01-10T11:32:03.078Z,3.79
2019-01-10T11:33:03.373Z,3.68
2019-01-10T11:34:03.109Z,3.12
2019-01-10T11:35:02.801Z,3.12
2019-01-10T11:36:02.887Z,4.1
2019-01-10T11:37:03.182Z,2.74
2019-01-10T11:38:03.484Z,4.31
2019-01-10T11:39:02.838Z,3.16
2019-01-10T11:40:02.924Z,3.16
2019-01-10T11:41:03.035Z,3.54
2019-01-10T11:42:02.960Z,3.54
2019-01-10T11:43:02.766Z,3.02
2019-01-10T11:44:02.569Z,3.02
2019-01-10T11:45:03.401Z,3.99
2019-01-10T11:46:02.916Z,3.99
2019-01-10T11:47:03.140Z,4.22
2019-01-10T11:48:02.771Z,3.44
2019-01-10T11:49:03.182Z,5.74
2019-01-10T11:50:03.611Z,3.23
2019-01-10T11:51:03.188Z,4.03
2019-01-10T11:52:01.834Z,4.03
2019-01-10T11:53:02.480Z,4.14
2019-01-10T11:54:03.178Z,4.14
2019-01-10T11:55:01.434Z,5.09
2019-01-10T11:56:03.143Z,3.14
2019-01-10T11:57:02.644Z,4.85
2019-01-10T11:58:03.434Z,4.85
2019-01-10T11:59:03.351Z,3.22
2019-01-10T12:00:02.600Z,3.22
2019-01-10T12:01:02.799Z,2.66
2019-01-10T12:02:02.671Z,2.66
2019-01-10T12:03:02.654Z,4.15
2019-01-10T12:04:03.170Z,4.15
2019-01-10T12:05:03.634Z,3.56
2019-01-10T12:06:03.487Z,2.93
2019-01-10T12:07:02.513Z,2.94
2019-01-10T12:08:03.196Z,2.94
2019-01-10T12:09:02.938Z,3.99
2019-01-10T12:10:03.540Z,3.99
2019-01-10T12:11:02.912Z,2.69
2019-01-10T12:12:02.775Z,3.07
2019-01-10T12:13:02.405Z,3.6
2019-01-10T12:14:03.300Z,2.91
2019-01-10T12:15:02.827Z,2.91
2019-01-10T12:16:03.503Z,3.31
2019-01-10T12:17:01.939Z,2.74
2019-01-10T12:18:02.727Z,2.7
2019-01-10T12:19:03.017Z,4.98
2019-01-10T12:20:03.083Z,3.34
2019-01-10T12:21:02.588Z,3.25
2019-01-10T12:22:03.085Z,3.25
2019-01-10T12:23:02.755Z,4.52
2019-01-10T12:24:03.351Z,4.52
2019-01-10T12:25:03.280Z,3.14
2019-01-10T12:26:02.670Z,2.69
2019-01-10T12:27:02.654Z,5.65
2019-01-10T12:28:03.364Z,5.65
2019-01-10T12:29:02.550Z,2.63
2019-01-10T12:30:03.208Z,5.03
2019-01-10T12:31:02.850Z,2.95
2019-01-10T12:32:02.450Z,3.58
2019-01-10T12:33:02.499Z,3.09
2019-01-10T12:34:02.448Z,5.17
2019-01-10T12:35:03.524Z,2.97
2019-01-10T12:36:02.637Z,4.09
2019-01-10T12:37:02.887Z,4.26
2019-01-10T12:38:01.603Z,3.45
2019-01-10T12:39:03.642Z,3.92
2019-01-10T12:40:01.604Z,3.24
2019-01-10T12:41:02.787Z,3.24
2019-01-10T12:42:03.371Z,3.81
2019-01-10T12:43:03.487Z,3.81
2019-01-10T12:44:02.808Z,7.06
2019-01-10T12:45:03.206Z,3
2019-01-10T12:46:02.890Z,3
2019-01-10T12:47:03.349Z,3.18
2019-01-10T12:48:02.884Z,3.18
2019-01-10T12:49:02.699Z,4.01
2019-01-10T12:50:03.431Z,4.01
2019-01-10T12:51:02.708Z,3.76
2019-01-10T12:52:02.891Z,3.76
2019-01-10T12:53:02.477Z,4.26
2019-01-10T12:54:03.539Z,3.85
2019-01-10T12:55:02.694Z,3.85
2019-01-10T12:56:02.724Z,8.97
2019-01-10T12:57:02.972Z,3.16
2019-01-10T12:58:02.643Z,3.16
2019-01-10T12:59:03.301Z,3.98
2019-01-10T13:00:02.348Z,2.94
2019-01-10T13:01:01.598Z,3.31
2019-01-10T13:02:03.330Z,3.15
2019-01-10T13:03:02.642Z,3.15
2019-01-10T13:04:03.180Z,4.22
2019-01-10T13:05:03.080Z,3.66
2019-01-10T13:06:02.787Z,3.73
2019-01-10T13:07:03.219Z,3.73
2019-01-10T13:08:04.039Z,3.36
2019-01-10T13:09:03.363Z,2.79
2019-01-10T13:10:02.919Z,4.58
2019-01-10T13:11:03.001Z,4.58
2019-01-10T13:12:02.795Z,3.48
2019-01-10T13:13:02.858Z,3.48
2019-01-10T13:14:05.357Z,3.17
2019-01-10T13:15:03.431Z,3.12
2019-01-10T13:16:02.854Z,3.75
2019-01-10T13:17:03.040Z,4.01
2019-01-10T13:18:03.233Z,3.41
2019-01-10T13:19:02.778Z,2.95